FLUGWETTER MÜNCHEN AIRPORT

[source: ADDS]
METAR
EDDM 232250Z AUTO VRB01KT //// R26R/P2000N R26L/0600V0900D ///////// M11/M12 Q1023 BECMG 0300 =
TAF
TAF EDDM 231700Z 2318/2424 VRB02KT 2000 BR SCT004 BECMG 2318/2319 1200 BR BKN003 BECMG 2319/2321 0600 FZFG VV001 TEMPO 2321/2409 0300 FZFG BECMG 2409/2411 1800 BR BKN003 BECMG 2411/2413 3000 BR BKN005 TEMPO 2412/2417 SCT005 =
SR / SS: 06:52 / 16:00 UTC (Tag 2017-01-23)

QR-Code dieser Seite

QR-Code dieser Seite